Time;durP1;ratioP1;P1;durP2;ratioP2;P2;SDS_P1;SDS_P2;PMS_P1;PMS_P2;Temp;Humidity;BMP_temperature;BMP_pressure;BME280_temperature;BME280_humidity;BME280_pressure;Samples;Min_cycle;Max_cycle;Signal;HPM_P1;HPM_P2
2022/03/16 00:01:54;;;;;;;4.50;4.13;;;;;;;;;;5028526;28;20045;-91
2022/03/16 00:04:21;;;;;;;0.30;0.30;;;;;;;;;;5028505;28;20065;-91
2022/03/16 00:06:47;;;;;;;0.55;0.55;;;;;;;;;;5044700;28;20051;-91
2022/03/16 00:09:13;;;;;;;0.45;0.45;;;;;;;;;;5028550;28;20104;-91
2022/03/16 00:11:39;;;;;;;1.27;1.02;;;;;;;;;;5028630;28;20422;-91
2022/03/16 00:14:05;;;;;;;0.60;0.60;;;;;;;;;;5029075;28;20104;-90
2022/03/16 00:16:31;;;;;;;0.30;0.30;;;;;;;;;;5028541;28;20044;-91
2022/03/16 00:18:57;;;;;;;5.55;1.65;;;;;;;;;;5028974;28;20033;-91
2022/03/16 00:21:23;;;;;;;0.30;0.30;;;;;;;;;;5028787;28;20043;-91
2022/03/16 00:23:49;;;;;;;0.65;0.65;;;;;;;;;;5028059;28;20486;-91
2022/03/16 00:26:15;;;;;;;0.82;0.82;;;;;;;;;;5028321;28;20041;-91
2022/03/16 00:28:41;;;;;;;0.40;0.40;;;;;;;;;;5028218;28;20132;-91
2022/03/16 00:31:07;;;;;;;1.08;0.98;;;;;;;;;;5027783;28;20045;-91
2022/03/16 00:33:34;;;;;;;0.30;0.30;;;;;;;;;;5028183;28;20043;-91
2022/03/16 00:36:01;;;;;;;4.00;2.03;;;;;;;;;;5027786;28;20041;-91
2022/03/16 00:38:27;;;;;;;1.30;1.20;;;;;;;;;;5029016;28;20525;-90
2022/03/16 00:40:54;;;;;;;0.80;0.75;;;;;;;;;;5029214;28;20041;-91
2022/03/16 00:43:20;;;;;;;0.30;0.30;;;;;;;;;;5028993;28;20182;-91
2022/03/16 00:45:46;;;;;;;0.50;0.50;;;;;;;;;;5028524;28;20615;-91
2022/03/16 00:48:12;;;;;;;0.70;0.70;;;;;;;;;;5027856;28;20088;-91
2022/03/16 00:50:38;;;;;;;3.15;1.35;;;;;;;;;;5027511;28;20080;-91
2022/03/16 00:53:04;;;;;;;0.50;0.50;;;;;;;;;;5027535;28;20053;-92
2022/03/16 00:55:30;;;;;;;1.20;1.00;;;;;;;;;;5027639;28;20043;-91
2022/03/16 00:57:56;;;;;;;1.00;0.93;;;;;;;;;;5027413;28;20466;-91
2022/03/16 01:00:24;;;;;;;0.38;0.38;;;;;;;;;;5044706;28;20045;-91
2022/03/16 01:02:50;;;;;;;0.55;0.55;;;;;;;;;;5027099;28;20049;-90
2022/03/16 01:05:16;;;;;;;0.70;0.70;;;;;;;;;;5027596;28;20398;-90
2022/03/16 01:07:43;;;;;;;0.70;0.70;;;;;;;;;;5027256;28;20048;-90
2022/03/16 01:10:09;;;;;;;0.50;0.50;;;;;;;;;;5027491;28;20041;-90
2022/03/16 01:12:37;;;;;;;2.70;2.28;;;;;;;;;;5028008;28;20040;-91
2022/03/16 01:15:03;;;;;;;1.13;1.05;;;;;;;;;;5027496;28;20048;-90
2022/03/16 01:17:29;;;;;;;0.65;0.65;;;;;;;;;;5026929;28;20071;-90
2022/03/16 01:19:55;;;;;;;5.78;3.60;;;;;;;;;;5027163;28;20041;-91
2022/03/16 01:22:21;;;;;;;0.30;0.30;;;;;;;;;;5027706;28;20051;-91
2022/03/16 01:24:47;;;;;;;1.35;1.15;;;;;;;;;;5028232;28;20041;-91
2022/03/16 01:27:13;;;;;;;1.55;1.08;;;;;;;;;;5027855;28;20517;-91
2022/03/16 01:29:39;;;;;;;0.52;0.50;;;;;;;;;;5027246;28;20055;-91
2022/03/16 01:32:05;;;;;;;1.55;1.30;;;;;;;;;;5027326;28;20068;-91
2022/03/16 01:34:32;;;;;;;2.25;0.90;;;;;;;;;;5030009;28;20119;-91
2022/03/16 01:36:58;;;;;;;0.38;0.38;;;;;;;;;;5030963;28;20063;-91
2022/03/16 01:39:24;;;;;;;0.40;0.40;;;;;;;;;;5031114;28;20041;-91
2022/03/16 01:41:50;;;;;;;0.40;0.40;;;;;;;;;;5031568;28;20048;-91
2022/03/16 01:44:17;;;;;;;0.40;0.40;;;;;;;;;;5031880;28;20055;-91
2022/03/16 01:46:43;;;;;;;1.67;0.77;;;;;;;;;;5030408;28;20087;-91
2022/03/16 01:49:09;;;;;;;1.10;1.00;;;;;;;;;;5031382;28;20095;-90
2022/03/16 01:51:35;;;;;;;0.98;0.95;;;;;;;;;;5031535;28;20041;-90
2022/03/16 01:54:01;;;;;;;3.97;2.10;;;;;;;;;;5031235;28;20045;-90
2022/03/16 01:56:28;;;;;;;0.47;0.47;;;;;;;;;;5030282;28;20048;-90
2022/03/16 01:58:54;;;;;;;0.60;0.60;;;;;;;;;;5031777;28;20037;-91
2022/03/16 02:01:20;;;;;;;0.40;0.40;;;;;;;;;;5031041;28;20046;-90
2022/03/16 02:03:46;;;;;;;1.23;1.00;;;;;;;;;;5014373;28;20041;-90
2022/03/16 02:06:13;;;;;;;0.60;0.60;;;;;;;;;;5030989;28;20037;-90
2022/03/16 02:08:42;;;;;;;0.30;0.30;;;;;;;;;;5030530;28;20044;-91
2022/03/16 02:11:09;;;;;;;1.20;1.10;;;;;;;;;;5030158;28;20047;-90
2022/03/16 02:13:36;;;;;;;2.63;1.65;;;;;;;;;;5030641;28;20043;-90
2022/03/16 02:16:03;;;;;;;0.95;0.77;;;;;;;;;;5030230;28;20037;-90
2022/03/16 02:18:29;;;;;;;2.33;2.03;;;;;;;;;;5030525;28;20048;-90
2022/03/16 02:20:56;;;;;;;0.40;0.40;;;;;;;;;;5031180;28;20041;-90
2022/03/16 02:23:22;;;;;;;0.80;0.80;;;;;;;;;;5013718;28;20080;-90
2022/03/16 02:25:52;;;;;;;0.55;0.55;;;;;;;;;;5031003;28;20435;-90
2022/03/16 02:28:19;;;;;;;3.33;2.20;;;;;;;;;;5030769;28;20040;-90
2022/03/16 02:30:45;;;;;;;0.45;0.45;;;;;;;;;;5029713;28;20049;-90
2022/03/16 02:33:11;;;;;;;0.52;0.52;;;;;;;;;;5030551;28;20047;-90
2022/03/16 02:35:37;;;;;;;0.60;0.60;;;;;;;;;;5030392;28;20100;-90
2022/03/16 02:38:06;;;;;;;0.68;0.68;;;;;;;;;;5045980;28;20045;-91
2022/03/16 02:40:32;;;;;;;1.25;1.15;;;;;;;;;;5030620;28;20041;-90
2022/03/16 02:42:58;;;;;;;0.63;0.63;;;;;;;;;;5029920;28;20068;-91
2022/03/16 02:45:24;;;;;;;0.60;0.60;;;;;;;;;;5013114;28;20467;-90
2022/03/16 02:47:51;;;;;;;0.50;0.50;;;;;;;;;;5030323;28;20048;-91
2022/03/16 02:50:18;;;;;;;0.60;0.60;;;;;;;;;;5029654;28;20052;-90
2022/03/16 02:52:44;;;;;;;0.50;0.50;;;;;;;;;;5030306;28;20040;-91
2022/03/16 02:55:11;;;;;;;1.48;1.25;;;;;;;;;;5030021;28;20037;-90
2022/03/16 02:57:38;;;;;;;0.38;0.38;;;;;;;;;;5029714;28;20071;-91
2022/03/16 03:00:05;;;;;;;1.33;1.23;;;;;;;;;;5029965;28;20087;-91
2022/03/16 03:02:35;;;;;;;0.70;0.70;;;;;;;;;;5029897;28;20456;-91
2022/03/16 03:05:01;;;;;;;0.60;0.60;;;;;;;;;;5029534;28;20041;-91
2022/03/16 03:07:27;;;;;;;0.50;0.50;;;;;;;;;;5029060;28;20113;-91
2022/03/16 03:09:53;;;;;;;1.15;1.05;;;;;;;;;;5029454;28;20486;-91
2022/03/16 03:12:19;;;;;;;0.80;0.60;;;;;;;;;;5028461;28;20440;-90
2022/03/16 03:14:45;;;;;;;1.85;1.30;;;;;;;;;;5028638;28;20067;-91
2022/03/16 03:17:11;;;;;;;1.15;1.05;;;;;;;;;;5028413;28;20045;-90
2022/03/16 03:19:37;;;;;;;2.65;1.75;;;;;;;;;;5028019;28;20045;-90
2022/03/16 03:22:07;;;;;;;2.25;1.50;;;;;;;;;;5028504;28;20409;-90
2022/03/16 03:24:33;;;;;;;7.50;1.40;;;;;;;;;;5028019;28;20040;-90
2022/03/16 03:26:59;;;;;;;0.73;0.73;;;;;;;;;;5027211;28;20649;-90
2022/03/16 03:29:25;;;;;;;0.70;0.68;;;;;;;;;;5028119;28;20036;-90
2022/03/16 03:31:51;;;;;;;1.25;1.15;;;;;;;;;;5027649;28;20095;-90
2022/03/16 03:34:17;;;;;;;0.95;0.90;;;;;;;;;;5028076;28;20043;-90
2022/03/16 03:36:43;;;;;;;0.70;0.70;;;;;;;;;;5027271;28;20085;-90
2022/03/16 03:39:10;;;;;;;0.70;0.70;;;;;;;;;;5027909;28;20041;-90
2022/03/16 03:41:36;;;;;;;2.17;1.88;;;;;;;;;;5027890;28;20478;-89
2022/03/16 03:44:05;;;;;;;0.60;0.60;;;;;;;;;;5027432;28;20040;-89
2022/03/16 03:46:31;;;;;;;1.05;0.82;;;;;;;;;;5026668;28;20051;-90
2022/03/16 03:48:57;;;;;;;0.50;0.50;;;;;;;;;;5027015;28;20142;-90
2022/03/16 03:51:23;;;;;;;0.50;0.50;;;;;;;;;;5026785;28;20041;-89
2022/03/16 03:53:49;;;;;;;0.70;0.70;;;;;;;;;;5027009;28;20136;-90
2022/03/16 03:56:15;;;;;;;0.70;0.70;;;;;;;;;;5026490;28;20094;-90
2022/03/16 03:58:41;;;;;;;0.50;0.50;;;;;;;;;;5026434;28;20041;-89
2022/03/16 04:01:08;;;;;;;0.80;0.80;;;;;;;;;;5027118;28;20040;-90
2022/03/16 04:03:35;;;;;;;0.63;0.63;;;;;;;;;;5027533;28;20049;-89
2022/03/16 04:06:01;;;;;;;1.20;1.10;;;;;;;;;;5026786;28;20040;-90
2022/03/16 04:08:27;;;;;;;0.55;0.55;;;;;;;;;;5010746;28;20100;-90
2022/03/16 04:10:55;;;;;;;0.80;0.80;;;;;;;;;;5027531;28;20134;-89
2022/03/16 04:13:21;;;;;;;1.85;1.25;;;;;;;;;;5026746;28;20084;-90
2022/03/16 04:15:47;;;;;;;1.83;1.38;;;;;;;;;;5026920;28;20036;-90
2022/03/16 04:18:13;;;;;;;1.50;1.05;;;;;;;;;;5026970;28;20067;-90
2022/03/16 04:20:39;;;;;;;0.75;0.75;;;;;;;;;;5027206;28;20045;-90
2022/03/16 04:23:05;;;;;;;0.50;0.50;;;;;;;;;;5027473;28;20405;-90
2022/03/16 04:25:31;;;;;;;2.25;1.42;;;;;;;;;;5027360;28;20126;-90
2022/03/16 04:27:57;;;;;;;1.55;1.23;;;;;;;;;;5027932;28;20052;-90
2022/03/16 04:30:23;;;;;;;1.23;1.08;;;;;;;;;;5026927;28;20055;-90
2022/03/16 04:32:52;;;;;;;2.53;1.95;;;;;;;;;;5026965;28;20490;-90
2022/03/16 04:35:19;;;;;;;0.60;0.60;;;;;;;;;;5027822;28;20041;-90
2022/03/16 04:37:47;;;;;;;1.25;1.15;;;;;;;;;;5027522;28;20094;-90
2022/03/16 04:40:14;;;;;;;1.30;1.00;;;;;;;;;;5044393;28;20486;-89
2022/03/16 04:42:40;;;;;;;3.80;2.25;;;;;;;;;;5027270;28;20037;-90
2022/03/16 04:45:06;;;;;;;1.25;0.77;;;;;;;;;;5027331;28;20032;-89
2022/03/16 04:47:32;;;;;;;0.43;0.43;;;;;;;;;;5026904;28;20075;-89
2022/03/16 04:49:58;;;;;;;0.60;0.60;;;;;;;;;;5044227;28;20041;-90
2022/03/16 04:52:25;;;;;;;0.75;0.70;;;;;;;;;;5027537;28;20049;-90
2022/03/16 04:54:51;;;;;;;10.98;1.70;;;;;;;;;;5027099;28;20406;-90
2022/03/16 04:57:17;;;;;;;2.03;1.17;;;;;;;;;;5026697;28;20072;-90
2022/03/16 04:59:43;;;;;;;1.05;0.95;;;;;;;;;;5027545;28;20044;-89
2022/03/16 05:02:09;;;;;;;0.38;0.38;;;;;;;;;;5021787;28;20045;-90
2022/03/16 05:04:35;;;;;;;0.93;0.88;;;;;;;;;;4988206;28;20042;-90
2022/03/16 05:07:02;;;;;;;0.85;0.82;;;;;;;;;;5035747;28;20483;-89
2022/03/16 05:09:32;;;;;;;0.50;0.50;;;;;;;;;;5027336;28;20491;-88
2022/03/16 05:11:58;;;;;;;1.25;0.98;;;;;;;;;;5022744;28;20060;-90
2022/03/16 05:14:24;;;;;;;4.22;1.77;;;;;;;;;;5005869;28;20075;-89
2022/03/16 05:16:51;;;;;;;1.58;1.20;;;;;;;;;;5005255;28;20073;-89
2022/03/16 05:19:17;;;;;;;0.50;0.50;;;;;;;;;;5005531;28;20096;-88
2022/03/16 05:21:43;;;;;;;0.55;0.55;;;;;;;;;;5005660;28;20072;-89
2022/03/16 05:24:09;;;;;;;0.85;0.80;;;;;;;;;;5023193;28;20049;-90
2022/03/16 05:26:35;;;;;;;0.68;0.68;;;;;;;;;;5005829;28;20053;-90
2022/03/16 05:29:01;;;;;;;2.38;1.65;;;;;;;;;;5007407;28;20047;-90
2022/03/16 05:31:27;;;;;;;3.92;3.40;;;;;;;;;;5010858;28;20494;-89
2022/03/16 05:33:54;;;;;;;0.93;0.70;;;;;;;;;;5035553;28;20044;-90
2022/03/16 05:36:20;;;;;;;0.95;0.93;;;;;;;;;;5027366;28;20544;-90
2022/03/16 05:38:47;;;;;;;1.88;1.77;;;;;;;;;;5027575;28;20038;-89
2022/03/16 05:41:16;;;;;;;0.70;0.70;;;;;;;;;;5027554;28;20048;-89
2022/03/16 05:43:42;;;;;;;1.05;0.95;;;;;;;;;;5027581;28;20104;-90
2022/03/16 05:46:11;;;;;;;1.10;0.95;;;;;;;;;;5023050;28;20537;-90
2022/03/16 05:48:37;;;;;;;4.18;3.80;;;;;;;;;;5010867;28;20048;-90
2022/03/16 05:51:03;;;;;;;1.75;1.40;;;;;;;;;;5027481;28;20075;-90
2022/03/16 05:53:29;;;;;;;1.33;1.13;;;;;;;;;;5027486;28;20522;-89
2022/03/16 05:55:55;;;;;;;1.10;1.00;;;;;;;;;;5027040;28;20037;-89
2022/03/16 05:58:21;;;;;;;5.00;4.65;;;;;;;;;;5013579;28;20041;-89
2022/03/16 06:00:47;;;;;;;3.22;2.17;;;;;;;;;;5026014;28;20071;-89
2022/03/16 06:03:13;;;;;;;0.63;0.63;;;;;;;;;;5024087;28;20037;-90
2022/03/16 06:05:39;;;;;;;1.30;1.20;;;;;;;;;;5028004;28;20045;-89
2022/03/16 06:08:06;;;;;;;1.27;1.17;;;;;;;;;;5023899;28;20087;-89
2022/03/16 06:10:32;;;;;;;1.63;0.95;;;;;;;;;;5028365;28;20045;-89
2022/03/16 06:12:59;;;;;;;2.83;2.05;;;;;;;;;;5027671;28;20429;-89
2022/03/16 06:15:27;;;;;;;1.77;1.33;;;;;;;;;;5028860;28;20470;-90
2022/03/16 06:17:57;;;;;;;1.95;0.98;;;;;;;;;;5028306;28;20043;-91
2022/03/16 06:20:31;;;;;;;0.80;0.70;;;;;;;;;;5023159;28;20047;-90
2022/03/16 06:22:57;;;;;;;0.50;0.50;;;;;;;;;;5012791;28;20041;-90
2022/03/16 06:25:26;;;;;;;0.30;0.30;;;;;;;;;;5024159;28;20037;-90
2022/03/16 06:27:53;;;;;;;1.02;0.98;;;;;;;;;;5021018;28;20034;-91
2022/03/16 06:30:20;;;;;;;3.10;1.38;;;;;;;;;;5018504;28;20037;-90
2022/03/16 06:32:49;;;;;;;0.75;0.75;;;;;;;;;;5019131;28;20040;-91
2022/03/16 06:35:15;;;;;;;0.43;0.43;;;;;;;;;;5023082;28;20056;-91
2022/03/16 06:37:42;;;;;;;0.57;0.57;;;;;;;;;;5027037;28;20100;-91
2022/03/16 06:40:08;;;;;;;10.05;4.88;;;;;;;;;;5047190;28;20086;-91
2022/03/16 06:42:34;;;;;;;0.40;0.40;;;;;;;;;;5030300;28;20468;-91
2022/03/16 06:45:01;;;;;;;0.40;0.40;;;;;;;;;;5018889;28;20041;-91
2022/03/16 06:47:27;;;;;;;1.63;1.52;;;;;;;;;;5018773;28;20037;-91
2022/03/16 06:49:53;;;;;;;1.33;1.20;;;;;;;;;;5015012;28;20052;-91
2022/03/16 06:52:19;;;;;;;0.50;0.50;;;;;;;;;;5024255;28;20493;-90
2022/03/16 06:54:45;;;;;;;0.60;0.60;;;;;;;;;;5028215;28;20045;-91
2022/03/16 06:57:11;;;;;;;1.27;1.17;;;;;;;;;;5010003;28;20045;-91
2022/03/16 06:59:37;;;;;;;2.70;2.40;;;;;;;;;;5027342;28;20048;-91
2022/03/16 07:02:03;;;;;;;1.05;0.82;;;;;;;;;;5021788;28;20092;-90
2022/03/16 07:04:30;;;;;;;1.83;1.33;;;;;;;;;;5009493;28;20108;-91
2022/03/16 07:06:56;;;;;;;3.10;2.13;;;;;;;;;;5010065;28;20080;-91
2022/03/16 07:09:23;;;;;;;1.08;1.02;;;;;;;;;;5009654;28;20052;-91
2022/03/16 07:11:49;;;;;;;7.57;3.72;;;;;;;;;;5024036;28;20147;-90
2022/03/16 07:14:31;;;;;;;3.53;1.60;;;;;;;;;;5025748;28;20037;-90
2022/03/16 07:16:57;;;;;;;0.73;0.70;;;;;;;;;;5014174;28;20060;-91
2022/03/16 07:19:23;;;;;;;0.68;0.68;;;;;;;;;;5021340;28;20037;-91
2022/03/16 07:21:49;;;;;;;1.48;1.38;;;;;;;;;;5024169;28;20047;-90
2022/03/16 07:24:15;;;;;;;0.68;0.68;;;;;;;;;;5014098;28;20384;-90
2022/03/16 07:26:41;;;;;;;4.35;1.85;;;;;;;;;;5008732;28;20402;-90
2022/03/16 07:29:07;;;;;;;4.65;2.70;;;;;;;;;;5013805;28;20044;-91
2022/03/16 07:31:36;;;;;;;6.07;2.80;;;;;;;;;;5025459;28;20045;-90
2022/03/16 07:34:03;;;;;;;3.42;2.60;;;;;;;;;;5017116;28;20063;-91
2022/03/16 07:36:31;;;;;;;1.60;1.50;;;;;;;;;;5028259;28;20498;-91
2022/03/16 07:38:57;;;;;;;4.25;2.72;;;;;;;;;;5019673;28;20044;-89
2022/03/16 07:41:26;;;;;;;1.00;0.90;;;;;;;;;;5013589;28;20032;-90
2022/03/16 07:43:52;;;;;;;1.90;1.73;;;;;;;;;;4999705;28;20042;-90
2022/03/16 07:46:18;;;;;;;5.40;3.60;;;;;;;;;;5014296;28;20045;-90
2022/03/16 07:48:45;;;;;;;6.72;3.70;;;;;;;;;;5027432;28;20048;-91
2022/03/16 07:51:12;;;;;;;3.20;2.17;;;;;;;;;;5022547;28;20077;-90
2022/03/16 07:53:38;;;;;;;1.35;0.73;;;;;;;;;;5008971;28;20040;-88
2022/03/16 07:56:05;;;;;;;3.60;2.13;;;;;;;;;;5008495;28;20041;-90
2022/03/16 07:58:31;;;;;;;4.45;4.05;;;;;;;;;;5014398;28;20041;-91
2022/03/16 08:00:57;;;;;;;1.42;1.33;;;;;;;;;;5055125;28;20041;-90
2022/03/16 08:03:23;;;;;;;1.23;0.93;;;;;;;;;;5017973;28;20072;-91
2022/03/16 08:05:49;;;;;;;5.10;2.88;;;;;;;;;;5008296;28;20041;-88
2022/03/16 08:08:18;;;;;;;5.35;3.05;;;;;;;;;;5001944;28;20511;-87
2022/03/16 08:10:45;;;;;;;1.10;1.00;;;;;;;;;;5017544;28;20119;-91
2022/03/16 08:13:11;;;;;;;0.50;0.50;;;;;;;;;;5016847;28;20044;-87
2022/03/16 08:15:37;;;;;;;2.58;2.17;;;;;;;;;;5011378;28;20045;-94
2022/03/16 08:18:05;;;;;;;2.00;1.45;;;;;;;;;;5023870;28;20045;-91
2022/03/16 08:20:41;;;;;;;3.95;2.05;;;;;;;;;;5030033;28;20055;-92
2022/03/16 08:23:07;;;;;;;13.73;4.35;;;;;;;;;;5016716;28;20041;-91
2022/03/16 08:25:33;;;;;;;1.40;1.20;;;;;;;;;;5024074;28;20088;-93
2022/03/16 08:28:00;;;;;;;3.67;2.72;;;;;;;;;;5013669;28;20048;-89
2022/03/16 08:30:26;;;;;;;7.50;4.75;;;;;;;;;;5024451;28;20073;-90
2022/03/16 08:32:52;;;;;;;8.48;4.68;;;;;;;;;;5026400;28;20041;-89
2022/03/16 08:35:18;;;;;;;5.78;2.88;;;;;;;;;;5014001;28;20120;-92
2022/03/16 08:37:44;;;;;;;8.10;4.72;;;;;;;;;;5027992;28;20087;-92
2022/03/16 08:40:15;;;;;;;5.50;3.53;;;;;;;;;;5029211;28;20044;-92
2022/03/16 08:42:41;;;;;;;11.50;4.43;;;;;;;;;;5005135;28;20037;-90
2022/03/16 08:45:07;;;;;;;7.00;4.10;;;;;;;;;;5004041;28;20041;-89
2022/03/16 08:47:33;;;;;;;7.25;4.90;;;;;;;;;;5007494;28;20053;-94
2022/03/16 08:50:01;;;;;;;3.17;1.88;;;;;;;;;;5017296;28;20041;-94
2022/03/16 08:52:27;;;;;;;7.20;3.63;;;;;;;;;;5027443;28;20067;-93
2022/03/16 08:54:53;;;;;;;6.15;3.85;;;;;;;;;;5030815;28;20068;-90
2022/03/16 08:57:21;;;;;;;10.75;5.07;;;;;;;;;;5028756;28;20070;-91
2022/03/16 08:59:47;;;;;;;6.32;3.17;;;;;;;;;;5029963;28;20033;-91
2022/03/16 09:02:13;;;;;;;8.98;5.00;;;;;;;;;;5029290;28;20064;-90
2022/03/16 09:04:40;;;;;;;9.80;2.28;;;;;;;;;;5025897;28;20049;-89
2022/03/16 09:07:05;;;;;;;7.32;3.92;;;8.60;99.90;;;;;;5026190;28;20056;-89
2022/03/16 09:09:31;;;;;;;1.67;1.45;;;9.40;99.90;;;;;;5017389;28;20053;-89
2022/03/16 09:11:57;;;;;;;11.00;5.25;;;10.30;99.90;;;;;;4992290;28;20041;-91
2022/03/16 09:14:23;;;;;;;13.95;5.22;;;10.20;99.90;;;;;;5016586;28;20072;-89
2022/03/16 09:16:52;;;;;;;6.60;3.90;;;9.60;99.90;;;;;;5021888;28;20121;-92
2022/03/16 09:19:21;;;;;;;9.23;4.68;;;9.80;99.90;;;;;;5024767;28;20037;-92
2022/03/16 09:21:50;;;;;;;13.10;7.63;;;9.70;99.90;;;;;;5027241;28;20036;-88
2022/03/16 09:24:17;;;;;;;4.80;2.85;;;10.30;99.90;;;;;;5022211;28;20045;-87
2022/03/16 09:26:43;;;;;;;7.40;4.72;;;9.70;99.90;;;;;;5024089;28;20041;-90
2022/03/16 09:29:10;;;;;;;9.50;5.57;;;9.90;99.90;;;;;;5021827;28;20044;-89
2022/03/16 09:31:37;;;;;;;6.55;3.03;;;9.90;99.90;;;;;;5017290;28;20037;-90
2022/03/16 09:34:05;;;;;;;3.30;1.98;;;10.00;99.90;;;;;;5027642;28;20394;-91
2022/03/16 09:36:34;;;;;;;7.65;3.90;;;9.80;99.90;;;;;;5011561;28;20041;-91
2022/03/16 09:39:01;;;;;;;2.10;1.50;;;10.40;99.90;;;;;;5010233;28;20042;-91
2022/03/16 09:41:28;;;;;;;5.72;2.95;;;10.50;99.90;;;;;;5024476;28;20052;-95
2022/03/16 09:43:55;;;;;;;11.18;5.10;;;10.50;99.90;;;;;;5032685;28;20071;-91
2022/03/16 09:46:32;;;;;;;8.38;4.85;;;10.50;99.90;;;;;;5017932;28;20038;-91
2022/03/16 09:48:59;;;;;;;3.17;2.03;;;10.10;99.90;;;;;;5001512;28;20045;-91
2022/03/16 09:51:25;;;;;;;10.70;5.20;;;11.20;99.90;;;;;;5021251;28;20044;-95
2022/03/16 09:53:54;;;;;;;10.20;5.72;;;10.60;99.90;;;;;;5014580;28;20037;-91
2022/03/16 09:56:23;;;;;;;4.13;2.95;;;11.30;99.90;;;;;;5031430;28;20090;-92
2022/03/16 09:58:49;;;;;;;2.15;1.60;;;11.20;99.90;;;;;;5033039;28;20041;-90
2022/03/16 10:01:15;;;;;;;3.97;2.50;;;10.70;99.90;;;;;;5019866;28;20043;-92
2022/03/16 10:03:48;;;;;;;11.68;6.15;;;10.60;99.90;;;;;;5025522;28;20071;-94
2022/03/16 10:06:16;;;;;;;3.05;1.55;;;10.70;99.90;;;;;;5016900;28;20130;-91
2022/03/16 10:13:13;;;;;;;0.80;0.80;;;10.70;99.90;;;;;;5017607;28;20041;-84
2022/03/16 10:14:14;;;;;;;7.35;3.47;;;10.90;99.90;;;;;;5007944;28;20045;-89
2022/03/16 10:19:53;;;;;;;2.20;1.27;;;11.90;99.90;;;;;;5005721;28;20037;-90
2022/03/16 10:22:25;;;;;;;1.25;1.15;;;11.50;99.90;;;;;;5029341;28;20037;-90
2022/03/16 10:24:58;;;;;;;5.85;3.15;;;11.40;99.90;;;;;;5020743;28;20037;-87
2022/03/16 10:27:24;;;;;;;9.65;4.22;;;11.50;99.90;;;;;;5019261;28;20105;-90
2022/03/16 10:29:51;;;;;;;2.42;1.40;;;11.50;99.90;;;;;;5008563;28;20056;-89
2022/03/16 10:32:24;;;;;;;6.57;3.85;;;11.40;99.90;;;;;;5023966;28;20041;-87
2022/03/16 10:34:55;;;;;;;2.30;1.40;;;11.70;99.90;;;;;;5006582;28;20101;-90
2022/03/16 10:37:22;;;;;;;3.75;2.53;;;11.70;99.90;;;;;;5037436;28;20037;-87
2022/03/16 10:39:52;;;;;;;3.30;2.05;;;11.80;99.90;;;;;;5027520;28;20059;-89
2022/03/16 10:48:22;;;;;;;2.92;1.90;;;12.30;99.90;;;;;;5033554;28;20043;-87
2022/03/16 10:50:55;;;;;;;4.32;2.25;;;12.30;99.90;;;;;;5016247;28;20112;-89
2022/03/16 10:53:28;;;;;;;6.70;2.80;;;12.30;99.90;;;;;;5018062;28;20112;-93
2022/03/16 10:55:56;;;;;;;2.20;1.27;;;12.40;99.90;;;;;;5025121;28;20041;-89
2022/03/16 10:58:23;;;;;;;2.10;1.30;;;13.30;99.90;;;;;;5010314;28;20510;-89
2022/03/16 11:00:52;;;;;;;13.63;2.15;;;12.70;99.90;;;;;;5012031;28;20033;-86
2022/03/16 11:03:22;;;;;;;2.95;2.08;;;12.70;99.90;;;;;;5004257;28;20485;-85
2022/03/16 11:05:49;;;;;;;2.65;1.17;;;12.80;99.90;;;;;;5021225;28;20125;-86
2022/03/16 11:08:35;;;;;;;0.82;0.82;;;12.90;99.90;;;;;;5008556;28;20072;-83
2022/03/16 11:13:27;;;;;;;2.03;1.33;;;13.10;99.90;;;;;;4981807;28;20131;-86
2022/03/16 11:13:49;;;;;;;3.03;1.40;;;13.10;99.90;;;;;;5005368;28;20402;-85
2022/03/16 11:16:20;;;;;;;2.22;1.25;;;13.10;99.90;;;;;;5016758;28;20502;-86
2022/03/16 11:18:50;;;;;;;3.03;1.48;;;13.10;99.90;;;;;;4997924;28;20061;-86
2022/03/16 11:21:22;;;;;;;4.60;2.08;;;13.10;99.90;;;;;;4981942;28;20038;-85
2022/03/16 11:26:51;;;;;;;5.35;2.80;;;13.10;99.90;;;;;;4997712;28;20057;-85
2022/03/16 11:30:13;;;;;;;1.70;0.98;;;13.20;99.90;;;;;;4986983;28;20072;-84
2022/03/16 11:32:41;;;;;;;3.13;1.55;;;13.20;99.90;;;;;;5011248;28;20471;-90
2022/03/16 11:35:09;;;;;;;0.30;0.30;;;13.50;99.90;;;;;;5023205;28;20037;-90
2022/03/16 11:37:47;;;;;;;1.80;1.00;;;13.60;99.90;;;;;;5017674;28;20056;-90
2022/03/16 11:40:20;;;;;;;3.10;1.88;;;13.50;99.90;;;;;;5019930;28;20087;-92
2022/03/16 11:43:04;;;;;;;2.05;1.35;;;13.60;99.90;;;;;;5010587;28;20048;-92
2022/03/16 11:45:38;;;;;;;4.82;2.10;;;13.60;99.90;;;;;;5015875;28;20037;-91
2022/03/16 11:48:32;;;;;;;8.90;3.38;;;13.60;99.90;;;;;;5019809;28;20252;-91
2022/03/16 11:51:16;;;;;;;3.42;1.35;;;13.30;99.90;;;;;;5019925;28;20042;-91
2022/03/16 11:53:49;;;;;;;3.20;1.65;;;13.60;99.90;;;;;;4989837;28;20042;-92
2022/03/16 11:56:36;;;;;;;1.08;0.70;;;13.60;99.90;;;;;;4990643;28;20455;-91
2022/03/16 11:59:27;;;;;;;3.25;1.45;;;13.70;99.90;;;;;;5017313;28;20699;-91
2022/03/16 12:02:12;;;;;;;2.35;1.35;;;13.80;99.90;;;;;;5028060;28;20061;-91
2022/03/16 12:04:45;;;;;;;3.53;1.88;;;13.70;99.90;;;;;;5015307;28;20045;-90
2022/03/16 12:07:22;;;;;;;2.33;1.17;;;13.70;99.90;;;;;;5029713;28;20044;-92
2022/03/16 12:09:54;;;;;;;2.15;1.48;;;13.70;99.90;;;;;;5018431;28;20402;-92
2022/03/16 12:12:57;;;;;;;2.58;1.65;;;13.90;99.90;;;;;;5025287;28;20041;-91
2022/03/16 12:15:34;;;;;;;4.95;3.08;;;13.70;99.90;;;;;;4986445;28;20038;-87
2022/03/16 12:18:00;;;;;;;3.13;1.38;;;13.80;99.90;;;;;;4996002;28;20128;-88
2022/03/16 12:20:40;;;;;;;5.18;1.88;;;13.80;99.90;;;;;;5031743;28;20069;-91
2022/03/16 12:23:11;;;;;;;2.08;1.35;;;13.90;99.90;;;;;;5005989;28;20037;-92
2022/03/16 12:25:40;;;;;;;12.25;2.28;;;14.20;99.90;;;;;;5013487;28;20057;-91
2022/03/16 12:31:19;;;;;;;3.58;2.10;;;14.10;99.90;;;;;;5051492;28;20632;-92
2022/03/16 12:33:48;;;;;;;6.35;3.28;;;14.10;99.90;;;;;;5027703;28;20503;-91
2022/03/16 12:36:25;;;;;;;4.55;2.67;;;14.10;99.90;;;;;;5026103;28;20037;-92
2022/03/16 12:39:05;;;;;;;5.35;2.78;;;13.90;99.90;;;;;;5027765;28;20037;-92
2022/03/16 12:44:17;;;;;;;1.92;1.02;;;14.10;99.90;;;;;;5043908;28;20045;-92
2022/03/16 12:47:25;;;;;;;7.82;3.65;;;14.10;99.90;;;;;;5047457;28;20105;-93
2022/03/16 12:49:54;;;;;;;4.68;1.92;;;14.00;99.90;;;;;;5040560;28;20076;-94
2022/03/16 12:52:20;;;;;;;1.13;0.88;;;14.00;99.90;;;;;;5043085;28;20128;-94
2022/03/16 12:54:46;;;;;;;2.45;1.13;;;13.90;99.90;;;;;;5048614;28;20041;-93
2022/03/16 12:57:14;;;;;;;4.82;1.98;;;13.10;99.90;;;;;;5048500;28;20106;-95
2022/03/16 12:59:46;;;;;;;1.73;1.27;;;14.10;99.90;;;;;;5048289;28;20482;-92
2022/03/16 13:02:12;;;;;;;2.67;1.02;;;14.00;99.90;;;;;;5034752;28;20041;-93
2022/03/16 13:04:42;;;;;;;4.80;2.58;;;14.10;99.90;;;;;;5031256;28;20090;-92
2022/03/16 13:07:08;;;;;;;1.00;0.63;;;14.20;99.90;;;;;;5026409;28;20057;-88
2022/03/16 13:09:36;;;;;;;2.50;1.27;;;14.10;99.90;;;;;;5041250;28;20123;-91
2022/03/16 13:12:04;;;;;;;2.35;1.30;;;14.20;99.90;;;;;;5044982;28;20043;-92
2022/03/16 13:14:57;;;;;;;0.40;0.40;;;13.80;99.90;;;;;;5043811;28;20037;-92
2022/03/16 13:17:24;;;;;;;4.00;1.95;;;13.80;99.90;;;;;;5035885;28;20056;-91
2022/03/16 13:19:54;;;;;;;1.85;1.35;;;14.20;99.90;;;;;;5043716;28;20120;-91
2022/03/16 13:22:26;;;;;;;1.00;0.73;;;14.60;99.90;;;;;;5023906;28;20037;-89
2022/03/16 13:24:57;;;;;;;6.53;1.65;;;14.10;99.90;;;;;;5023781;28;20621;-91
2022/03/16 13:27:35;;;;;;;11.32;1.83;;;15.20;99.90;;;;;;5031759;28;20033;-92
2022/03/16 13:30:10;;;;;;;2.95;1.70;;;13.80;99.90;;;;;;5047922;28;20044;-90
2022/03/16 13:32:37;;;;;;;;;;;13.80;99.90;;;;;;5068275;28;20048;-93
2022/03/16 13:35:15;;;;;;;0.65;0.60;;;14.10;99.90;;;;;;5067356;28;20005;-94
2022/03/16 13:38:05;;;;;;;4.00;2.10;;;13.80;99.90;;;;;;5017712;28;20040;-93
2022/03/16 13:40:38;;;;;;;2.40;0.85;;;13.80;99.90;;;;;;5039629;28;20048;-93
2022/03/16 13:43:08;;;;;;;2.60;1.67;;;14.00;99.90;;;;;;5030794;28;20037;-91
2022/03/16 13:45:42;;;;;;;3.90;2.65;;;14.30;99.90;;;;;;5037147;28;20044;-92
2022/03/16 13:48:13;;;;;;;2.67;1.67;;;14.30;99.90;;;;;;5049010;28;20522;-94
2022/03/16 13:50:44;;;;;;;16.27;8.15;;;14.30;99.90;;;;;;5009901;28;20037;-93
2022/03/16 13:53:21;;;;;;;2.55;1.50;;;14.40;99.90;;;;;;5036179;28;20033;-93
2022/03/16 13:55:51;;;;;;;2.58;1.55;;;14.50;99.90;;;;;;5037442;28;20037;-93
2022/03/16 13:58:26;;;;;;;2.63;1.38;;;14.30;99.90;;;;;;5039123;28;20038;-93
2022/03/16 14:00:53;;;;;;;;;;;14.30;99.90;;;;;;5034754;28;20056;-90
2022/03/16 14:04:10;;;;;;;1.55;1.40;;;14.20;99.90;;;;;;5038930;28;19917;-90
2022/03/16 14:06:41;;;;;;;2.45;1.45;;;14.20;99.90;;;;;;5055699;28;20055;-91
2022/03/16 14:09:25;;;;;;;0.93;0.60;;;14.10;99.90;;;;;;5031309;28;20041;-91
2022/03/16 14:11:52;;;;;;;2.00;1.35;;;14.10;99.90;;;;;;5043865;28;20068;-91
2022/03/16 14:14:19;;;;;;;4.40;2.25;;;14.00;99.90;;;;;;5027254;28;20515;-92
2022/03/16 14:16:52;;;;;;;0.65;0.65;;;14.50;99.90;;;;;;5067458;28;20052;-89
2022/03/16 14:19:40;;;;;;;3.70;2.17;;;13.90;99.90;;;;;;5031573;28;20121;-89
2022/03/16 14:22:06;;;;;;;5.85;0.82;;;13.80;99.90;;;;;;5024439;28;20037;-90
2022/03/16 14:24:33;;;;;;;3.25;1.48;;;13.70;99.90;;;;;;5030168;28;20148;-94
2022/03/16 14:27:19;;;;;;;4.85;2.35;;;13.70;99.90;;;;;;5046687;28;20047;-93
2022/03/16 14:29:46;;;;;;;1.63;1.52;;;13.40;99.90;;;;;;5065079;28;20104;-92